Aeroporto :
LOGIN :

Iscrizione | Disclaimer

   EN    FR    IT 

 










Sommario :    VFR   VFR Marginale   IFR   IFR Intensivo   IFR Molto Intensivo
Visibilità : 
Base nubi : 
>= 8 km
>= 3000ft
5 / 8 km
1000 / 3000 ft
1500m / 5 km
500 / 1000 ft
800 / 1500m
200 / 500 ft
< 800m
< 200 ft
Simboli :   Temporali  Nebbia  Neve Forte  Precipitazioni Forti  Vento > 20 kt
SIGMETs :   Varie  Temporali  Ghiacco  Turbolenza  Onda orograficha  Ceneri Vulcaniche






- Altitudine del aeroporto : 183 ft
- Codice IATA : HAJ


EDDV - Hanover/Langenhagen Int.

ULTIMO METAR :
  • 250950Z 26009KT 230V300 9999 SCT030 14/06 Q0997 NOSIG

METARs OBSOLETI :
  • 250920Z 25011KT 220V290 9999 SCT027 14/06 Q0997 NOSIG
  • 250850Z 24012KT 200V280 9999 FEW024 14/07 Q0997 NOSIG
  • 250820Z 24009KT 220V280 9999 FEW020 13/08 Q0997 NOSIG
  • 250750Z 23007KT 200V270 9999 FEW016 13/08 Q0997 NOSIG
  • 250720Z 23007KT 180V290 CAVOK 13/08 Q0997 NOSIG
  • 250650Z 24007KT 200V280 CAVOK 13/08 Q0997 NOSIG

TAF TAF EDDV
Valido dal 25 a 06 ore il 26 a 06 ore UTC


250500Z 2506/2606 23008KT 9999 FEW040
PROB30
TEMPO 2506/2508 SHRA BKN025CB
BECMG 2515/2518 VRB02KT
TEMPO 2604/2606 3000 BCFG



MetMap, La meteo Aeronautica in un colpo d'occhio ! - Copyright ORBIFLY Dicembre 2007 - Disclaimer

ORBIFLY MET'MAP TEAM :

Programmazione e sviluppo : Alexandra Zaïnal
Concezione : Baudouin d'Aumeries
Aiuto per la programmazione : Marc-Olivier Méhu
Supporto tecnico e logistico : Manuel Goepfert
Aiuto per la traduzione : Arnaldo La Scala

Contatto : metmap@orbifly.com




FONTI E CREDITI :

   NOAA